sensor_id;sensor_type;location;lat;lon;timestamp;temperature;humidity
2783;DHT22;1399;47.072;15.452;2022-07-30T05:41:04;21.50;88.10
2783;DHT22;1399;47.072;15.452;2022-07-30T05:43:29;21.50;88.20
2783;DHT22;1399;47.072;15.452;2022-07-30T05:45:55;21.50;88.30
2783;DHT22;1399;47.072;15.452;2022-07-30T05:48:21;21.50;88.30
2783;DHT22;1399;47.072;15.452;2022-07-30T05:50:48;21.50;88.20
2783;DHT22;1399;47.072;15.452;2022-07-30T05:53:13;21.50;88.30
2783;DHT22;1399;47.072;15.452;2022-07-30T05:55:39;21.50;88.30
2783;DHT22;1399;47.072;15.452;2022-07-30T05:58:05;21.50;88.40
2783;DHT22;1399;47.072;15.452;2022-07-30T06:00:30;21.50;88.50
2783;DHT22;1399;47.072;15.452;2022-07-30T06:02:56;21.50;88.50
2783;DHT22;1399;47.072;15.452;2022-07-30T06:05:22;21.50;88.60
2783;DHT22;1399;47.072;15.452;2022-07-30T06:07:47;21.50;88.60
2783;DHT22;1399;47.072;15.452;2022-07-30T06:10:13;21.50;88.60
2783;DHT22;1399;47.072;15.452;2022-07-30T06:12:39;21.50;88.70
2783;DHT22;1399;47.072;15.452;2022-07-30T06:15:08;21.50;88.60
2783;DHT22;1399;47.072;15.452;2022-07-30T06:17:34;21.50;88.50
2783;DHT22;1399;47.072;15.452;2022-07-30T06:19:59;21.60;88.70
2783;DHT22;1399;47.072;15.452;2022-07-30T06:22:25;21.60;88.60
2783;DHT22;1399;47.072;15.452;2022-07-30T06:24:51;21.60;88.50
2783;DHT22;1399;47.072;15.452;2022-07-30T06:27:16;21.60;88.50
2783;DHT22;1399;47.072;15.452;2022-07-30T06:29:42;21.60;88.50
2783;DHT22;1399;47.072;15.452;2022-07-30T06:32:08;21.60;88.50
2783;DHT22;1399;47.072;15.452;2022-07-30T06:34:34;21.60;88.40
2783;DHT22;1399;47.072;15.452;2022-07-30T06:36:59;21.60;88.30
2783;DHT22;1399;47.072;15.452;2022-07-30T06:39:25;21.60;89.00
2783;DHT22;1399;47.072;15.452;2022-07-30T06:41:51;21.70;88.00
2783;DHT22;1399;47.072;15.452;2022-07-30T06:44:17;21.70;87.90
2783;DHT22;1399;47.072;15.452;2022-07-30T06:46:43;21.70;87.70
2783;DHT22;1399;47.072;15.452;2022-07-30T06:49:08;21.70;87.50
2783;DHT22;1399;47.072;15.452;2022-07-30T06:51:34;21.70;87.40
2783;DHT22;1399;47.072;15.452;2022-07-30T06:54:00;21.70;87.40
2783;DHT22;1399;47.072;15.452;2022-07-30T06:56:25;21.70;87.30
2783;DHT22;1399;47.072;15.452;2022-07-30T06:58:51;21.70;87.20
2783;DHT22;1399;47.072;15.452;2022-07-30T07:01:16;21.70;87.00
2783;DHT22;1399;47.072;15.452;2022-07-30T07:03:42;21.80;87.00
2783;DHT22;1399;47.072;15.452;2022-07-30T07:06:08;21.80;86.70
2783;DHT22;1399;47.072;15.452;2022-07-30T07:08:37;21.80;86.60
2783;DHT22;1399;47.072;15.452;2022-07-30T07:11:02;21.80;86.50
2783;DHT22;1399;47.072;15.452;2022-07-30T07:13:28;21.80;86.40
2783;DHT22;1399;47.072;15.452;2022-07-30T07:15:54;21.80;86.30
2783;DHT22;1399;47.072;15.452;2022-07-30T07:18:19;21.80;86.30
2783;DHT22;1399;47.072;15.452;2022-07-30T07:20:45;21.80;86.30
2783;DHT22;1399;47.072;15.452;2022-07-30T07:23:11;21.80;86.20
2783;DHT22;1399;47.072;15.452;2022-07-30T07:25:37;21.80;86.10
2783;DHT22;1399;47.072;15.452;2022-07-30T07:28:03;21.80;86.10
2783;DHT22;1399;47.072;15.452;2022-07-30T07:30:29;21.80;86.10
2783;DHT22;1399;47.072;15.452;2022-07-30T07:32:54;21.80;86.10
2783;DHT22;1399;47.072;15.452;2022-07-30T07:35:20;21.80;86.10
2783;DHT22;1399;47.072;15.452;2022-07-30T07:37:46;21.80;86.10
2783;DHT22;1399;47.072;15.452;2022-07-30T07:40:12;21.80;86.10
2783;DHT22;1399;47.072;15.452;2022-07-30T07:42:37;21.80;86.00
2783;DHT22;1399;47.072;15.452;2022-07-30T07:45:03;21.80;85.90
2783;DHT22;1399;47.072;15.452;2022-07-30T07:47:29;21.80;85.70
2783;DHT22;1399;47.072;15.452;2022-07-30T07:49:55;21.90;85.70
2783;DHT22;1399;47.072;15.452;2022-07-30T07:52:21;21.90;85.50
2783;DHT22;1399;47.072;15.452;2022-07-30T07:54:46;21.90;85.40
2783;DHT22;1399;47.072;15.452;2022-07-30T07:57:12;21.90;85.30
2783;DHT22;1399;47.072;15.452;2022-07-30T07:59:38;22.00;85.30
2783;DHT22;1399;47.072;15.452;2022-07-30T08:02:04;22.00;85.20
2783;DHT22;1399;47.072;15.452;2022-07-30T08:04:29;22.00;85.10
2783;DHT22;1399;47.072;15.452;2022-07-30T08:06:55;22.00;84.80
2783;DHT22;1399;47.072;15.452;2022-07-30T08:09:21;22.10;84.80
2783;DHT22;1399;47.072;15.452;2022-07-30T08:11:46;22.00;84.60
2783;DHT22;1399;47.072;15.452;2022-07-30T08:14:12;22.10;85.40
2783;DHT22;1399;47.072;15.452;2022-07-30T08:16:39;22.10;84.30
2783;DHT22;1399;47.072;15.452;2022-07-30T08:19:04;22.10;84.10
2783;DHT22;1399;47.072;15.452;2022-07-30T08:21:30;22.20;84.10
2783;DHT22;1399;47.072;15.452;2022-07-30T08:23:56;22.20;83.80
2783;DHT22;1399;47.072;15.452;2022-07-30T08:26:21;22.30;83.70
2783;DHT22;1399;47.072;15.452;2022-07-30T08:28:47;22.30;83.50
2783;DHT22;1399;47.072;15.452;2022-07-30T08:31:13;22.30;83.30
2783;DHT22;1399;47.072;15.452;2022-07-30T08:33:39;22.30;83.10
2783;DHT22;1399;47.072;15.452;2022-07-30T08:36:05;22.40;83.00
2783;DHT22;1399;47.072;15.452;2022-07-30T08:38:31;22.40;82.80
2783;DHT22;1399;47.072;15.452;2022-07-30T08:40:57;22.50;82.70
2783;DHT22;1399;47.072;15.452;2022-07-30T08:43:24;22.50;82.50
2783;DHT22;1399;47.072;15.452;2022-07-30T08:45:51;22.60;82.30
2783;DHT22;1399;47.072;15.452;2022-07-30T08:48:19;22.60;82.00
2783;DHT22;1399;47.072;15.452;2022-07-30T08:50:46;22.70;81.90
2783;DHT22;1399;47.072;15.452;2022-07-30T08:53:13;22.80;81.80
2783;DHT22;1399;47.072;15.452;2022-07-30T08:55:39;22.80;81.50
2783;DHT22;1399;47.072;15.452;2022-07-30T08:58:14;22.90;81.20
2783;DHT22;1399;47.072;15.452;2022-07-30T09:00:43;23.00;80.90
2783;DHT22;1399;47.072;15.452;2022-07-30T09:03:09;23.10;80.70
2783;DHT22;1399;47.072;15.452;2022-07-30T09:05:35;23.20;80.40
2783;DHT22;1399;47.072;15.452;2022-07-30T09:08:03;23.20;79.90
2783;DHT22;1399;47.072;15.452;2022-07-30T09:10:29;23.30;79.70
2783;DHT22;1399;47.072;15.452;2022-07-30T09:12:54;23.40;79.40
2783;DHT22;1399;47.072;15.452;2022-07-30T09:15:20;23.50;79.10
2783;DHT22;1399;47.072;15.452;2022-07-30T09:17:56;23.60;78.60
2783;DHT22;1399;47.072;15.452;2022-07-30T09:20:25;23.80;78.10
2783;DHT22;1399;47.072;15.452;2022-07-30T09:22:55;23.90;77.30
2783;DHT22;1399;47.072;15.452;2022-07-30T09:25:40;24.00;76.50
2783;DHT22;1399;47.072;15.452;2022-07-30T09:28:07;24.20;75.90
2783;DHT22;1399;47.072;15.452;2022-07-30T09:30:52;24.20;75.30
2783;DHT22;1399;47.072;15.452;2022-07-30T09:33:39;24.30;74.80
2783;DHT22;1399;47.072;15.452;2022-07-30T09:36:09;24.40;74.10
2783;DHT22;1399;47.072;15.452;2022-07-30T09:38:50;24.50;73.50
2783;DHT22;1399;47.072;15.452;2022-07-30T09:41:31;24.60;73.10
2783;DHT22;1399;47.072;15.452;2022-07-30T09:43:58;24.70;73.00
2783;DHT22;1399;47.072;15.452;2022-07-30T09:46:41;24.70;72.70
2783;DHT22;1399;47.072;15.452;2022-07-30T09:49:15;24.80;72.60
2783;DHT22;1399;47.072;15.452;2022-07-30T09:51:41;24.80;72.20
2783;DHT22;1399;47.072;15.452;2022-07-30T09:54:07;24.90;72.10
2783;DHT22;1399;47.072;15.452;2022-07-30T09:56:32;25.00;71.90
2783;DHT22;1399;47.072;15.452;2022-07-30T09:58:58;25.00;71.80
2783;DHT22;1399;47.072;15.452;2022-07-30T10:01:24;25.00;71.70
2783;DHT22;1399;47.072;15.452;2022-07-30T10:03:49;25.00;71.70
2783;DHT22;1399;47.072;15.452;2022-07-30T10:06:15;25.00;71.60
2783;DHT22;1399;47.072;15.452;2022-07-30T10:11:21;25.00;71.40
2783;DHT22;1399;47.072;15.452;2022-07-30T10:13:55;25.00;71.30
2783;DHT22;1399;47.072;15.452;2022-07-30T10:16:21;25.10;71.30
2783;DHT22;1399;47.072;15.452;2022-07-30T10:18:50;25.10;71.10
2783;DHT22;1399;47.072;15.452;2022-07-30T10:21:16;25.10;71.00
2783;DHT22;1399;47.072;15.452;2022-07-30T10:23:42;25.10;70.90
2783;DHT22;1399;47.072;15.452;2022-07-30T10:26:08;25.20;70.90
2783;DHT22;1399;47.072;15.452;2022-07-30T10:28:34;25.20;70.80
2783;DHT22;1399;47.072;15.452;2022-07-30T10:31:00;25.20;70.70
2783;DHT22;1399;47.072;15.452;2022-07-30T10:33:30;25.10;70.60
2783;DHT22;1399;47.072;15.452;2022-07-30T10:35:56;25.20;70.60
2783;DHT22;1399;47.072;15.452;2022-07-30T10:38:29;25.20;70.40
2783;DHT22;1399;47.072;15.452;2022-07-30T10:41:03;25.20;70.20
2783;DHT22;1399;47.072;15.452;2022-07-30T10:49:12;25.30;69.60
2783;DHT22;1399;47.072;15.452;2022-07-30T10:51:57;25.40;69.40
2783;DHT22;1399;47.072;15.452;2022-07-30T11:02:24;25.40;69.00
2783;DHT22;1399;47.072;15.452;2022-07-30T11:07:42;25.30;69.10
2783;DHT22;1399;47.072;15.452;2022-07-30T11:10:38;25.20;69.20
2783;DHT22;1399;47.072;15.452;2022-07-30T11:13:08;25.20;69.40
2783;DHT22;1399;47.072;15.452;2022-07-30T11:16:00;25.20;69.50
2783;DHT22;1399;47.072;15.452;2022-07-30T11:18:27;25.10;69.60
2783;DHT22;1399;47.072;15.452;2022-07-30T11:21:18;25.10;69.70
2783;DHT22;1399;47.072;15.452;2022-07-30T11:23:44;25.00;69.70
2783;DHT22;1399;47.072;15.452;2022-07-30T11:29:02;25.00;69.70
2783;DHT22;1399;47.072;15.452;2022-07-30T11:31:34;25.00;69.60
2783;DHT22;1399;47.072;15.452;2022-07-30T11:37:13;25.10;69.50
2783;DHT22;1399;47.072;15.452;2022-07-30T11:47:47;25.10;69.20
2783;DHT22;1399;47.072;15.452;2022-07-30T11:50:18;25.10;69.10
2783;DHT22;1399;47.072;15.452;2022-07-30T11:52:52;25.10;69.00
2783;DHT22;1399;47.072;15.452;2022-07-30T11:55:27;25.10;69.00
2783;DHT22;1399;47.072;15.452;2022-07-30T11:57:53;25.10;69.00
2783;DHT22;1399;47.072;15.452;2022-07-30T12:00:20;25.20;69.00
2783;DHT22;1399;47.072;15.452;2022-07-30T12:02:47;25.20;68.80
2783;DHT22;1399;47.072;15.452;2022-07-30T12:05:15;25.30;68.60
2783;DHT22;1399;47.072;15.452;2022-07-30T12:07:41;25.30;68.40
2783;DHT22;1399;47.072;15.452;2022-07-30T12:10:15;25.30;68.30
2783;DHT22;1399;47.072;15.452;2022-07-30T12:12:42;25.30;68.20
2783;DHT22;1399;47.072;15.452;2022-07-30T12:15:09;25.40;68.10
2783;DHT22;1399;47.072;15.452;2022-07-30T12:17:44;25.40;68.00
2783;DHT22;1399;47.072;15.452;2022-07-30T12:20:18;25.40;67.80
2783;DHT22;1399;47.072;15.452;2022-07-30T12:22:44;25.50;67.70
2783;DHT22;1399;47.072;15.452;2022-07-30T12:25:11;25.50;67.60
2783;DHT22;1399;47.072;15.452;2022-07-30T12:27:37;25.60;67.40
2783;DHT22;1399;47.072;15.452;2022-07-30T12:30:06;25.60;67.10
2783;DHT22;1399;47.072;15.452;2022-07-30T12:32:34;25.60;67.00
2783;DHT22;1399;47.072;15.452;2022-07-30T12:35:00;25.70;67.00
2783;DHT22;1399;47.072;15.452;2022-07-30T12:37:26;25.70;66.80
2783;DHT22;1399;47.072;15.452;2022-07-30T12:40:09;25.70;66.70
2783;DHT22;1399;47.072;15.452;2022-07-30T12:42:48;25.70;66.60
2783;DHT22;1399;47.072;15.452;2022-07-30T12:45:30;25.70;66.60
2783;DHT22;1399;47.072;15.452;2022-07-30T12:47:57;25.70;66.60
2783;DHT22;1399;47.072;15.452;2022-07-30T12:50:23;25.70;66.50
2783;DHT22;1399;47.072;15.452;2022-07-30T12:52:51;25.70;66.50
2783;DHT22;1399;47.072;15.452;2022-07-30T12:55:18;25.70;66.50
2783;DHT22;1399;47.072;15.452;2022-07-30T12:57:54;25.70;66.40
2783;DHT22;1399;47.072;15.452;2022-07-30T13:00:21;25.70;66.20
2783;DHT22;1399;47.072;15.452;2022-07-30T13:02:47;25.80;66.20
2783;DHT22;1399;47.072;15.452;2022-07-30T13:05:13;25.80;66.00
2783;DHT22;1399;47.072;15.452;2022-07-30T13:07:56;25.80;65.90
2783;DHT22;1399;47.072;15.452;2022-07-30T13:10:22;25.90;65.80
2783;DHT22;1399;47.072;15.452;2022-07-30T13:12:48;25.80;65.60
2783;DHT22;1399;47.072;15.452;2022-07-30T13:15:21;25.80;65.60
2783;DHT22;1399;47.072;15.452;2022-07-30T13:17:47;25.80;65.60
2783;DHT22;1399;47.072;15.452;2022-07-30T13:20:15;25.70;65.60
2783;DHT22;1399;47.072;15.452;2022-07-30T13:22:41;25.70;65.70
2783;DHT22;1399;47.072;15.452;2022-07-30T13:25:08;25.70;65.80
2783;DHT22;1399;47.072;15.452;2022-07-30T13:27:34;25.60;65.90
2783;DHT22;1399;47.072;15.452;2022-07-30T13:30:01;25.60;66.00
2783;DHT22;1399;47.072;15.452;2022-07-30T13:32:26;25.60;66.00
2783;DHT22;1399;47.072;15.452;2022-07-30T13:34:52;25.50;66.00
2783;DHT22;1399;47.072;15.452;2022-07-30T13:37:18;25.50;66.10
2783;DHT22;1399;47.072;15.452;2022-07-30T13:39:43;25.50;66.20
2783;DHT22;1399;47.072;15.452;2022-07-30T13:42:09;25.40;66.30
2783;DHT22;1399;47.072;15.452;2022-07-30T13:44:35;25.40;66.40
2783;DHT22;1399;47.072;15.452;2022-07-30T13:47:00;25.40;66.50
2783;DHT22;1399;47.072;15.452;2022-07-30T13:49:26;25.30;66.40
2783;DHT22;1399;47.072;15.452;2022-07-30T13:51:52;25.30;66.40
2783;DHT22;1399;47.072;15.452;2022-07-30T13:54:18;25.30;66.50
2783;DHT22;1399;47.072;15.452;2022-07-30T13:56:44;25.30;66.50
2783;DHT22;1399;47.072;15.452;2022-07-30T13:59:09;25.30;66.50
2783;DHT22;1399;47.072;15.452;2022-07-30T14:01:36;25.30;66.40
2783;DHT22;1399;47.072;15.452;2022-07-30T14:04:02;25.30;66.40
2783;DHT22;1399;47.072;15.452;2022-07-30T14:06:28;25.30;66.40
2783;DHT22;1399;47.072;15.452;2022-07-30T14:08:53;25.30;66.40
2783;DHT22;1399;47.072;15.452;2022-07-30T14:11:19;25.20;66.30
2783;DHT22;1399;47.072;15.452;2022-07-30T14:13:45;25.20;66.20
2783;DHT22;1399;47.072;15.452;2022-07-30T14:16:10;25.30;66.30
2783;DHT22;1399;47.072;15.452;2022-07-30T14:18:36;25.30;66.20
2783;DHT22;1399;47.072;15.452;2022-07-30T14:21:02;25.20;66.00
2783;DHT22;1399;47.072;15.452;2022-07-30T14:23:28;25.30;66.10
2783;DHT22;1399;47.072;15.452;2022-07-30T14:25:55;25.30;66.00
2783;DHT22;1399;47.072;15.452;2022-07-30T14:28:20;25.30;65.90
2783;DHT22;1399;47.072;15.452;2022-07-30T14:30:46;25.30;65.90
2783;DHT22;1399;47.072;15.452;2022-07-30T14:33:12;25.30;65.80
2783;DHT22;1399;47.072;15.452;2022-07-30T14:35:37;25.30;65.70
2783;DHT22;1399;47.072;15.452;2022-07-30T14:38:03;25.30;65.70
2783;DHT22;1399;47.072;15.452;2022-07-30T14:40:30;25.30;65.60
2783;DHT22;1399;47.072;15.452;2022-07-30T14:42:56;25.20;65.50
2783;DHT22;1399;47.072;15.452;2022-07-30T14:45:22;25.30;65.50
2783;DHT22;1399;47.072;15.452;2022-07-30T14:47:47;25.30;65.40
2783;DHT22;1399;47.072;15.452;2022-07-30T14:50:13;25.30;65.50
2783;DHT22;1399;47.072;15.452;2022-07-30T14:52:39;25.30;65.30
2783;DHT22;1399;47.072;15.452;2022-07-30T14:55:09;25.30;65.10
2783;DHT22;1399;47.072;15.452;2022-07-30T14:57:34;25.30;65.10
2783;DHT22;1399;47.072;15.452;2022-07-30T15:00:01;25.20;65.10
2783;DHT22;1399;47.072;15.452;2022-07-30T15:02:27;25.20;65.10
2783;DHT22;1399;47.072;15.452;2022-07-30T15:04:52;25.20;65.10
2783;DHT22;1399;47.072;15.452;2022-07-30T15:07:18;25.10;65.00
2783;DHT22;1399;47.072;15.452;2022-07-30T15:09:44;25.00;64.90
2783;DHT22;1399;47.072;15.452;2022-07-30T15:12:09;25.00;64.60
2783;DHT22;1399;47.072;15.452;2022-07-30T15:14:39;25.00;64.30
2783;DHT22;1399;47.072;15.452;2022-07-30T15:17:04;24.90;63.80
2783;DHT22;1399;47.072;15.452;2022-07-30T15:19:33;24.90;63.60
2783;DHT22;1399;47.072;15.452;2022-07-30T15:21:59;24.90;63.50
2783;DHT22;1399;47.072;15.452;2022-07-30T15:24:26;24.90;63.30
2783;DHT22;1399;47.072;15.452;2022-07-30T15:26:54;24.80;63.10
2783;DHT22;1399;47.072;15.452;2022-07-30T15:29:20;24.90;63.00
2783;DHT22;1399;47.072;15.452;2022-07-30T15:31:49;24.90;62.90
2783;DHT22;1399;47.072;15.452;2022-07-30T15:34:14;24.90;62.80
2783;DHT22;1399;47.072;15.452;2022-07-30T15:36:40;24.90;62.60
2783;DHT22;1399;47.072;15.452;2022-07-30T15:39:06;24.90;62.40
2783;DHT22;1399;47.072;15.452;2022-07-30T15:41:32;24.90;62.20
2783;DHT22;1399;47.072;15.452;2022-07-30T15:43:58;24.90;62.00
2783;DHT22;1399;47.072;15.452;2022-07-30T15:46:24;24.90;61.70
2783;DHT22;1399;47.072;15.452;2022-07-30T15:48:50;24.90;61.10
2783;DHT22;1399;47.072;15.452;2022-07-30T15:51:16;24.90;60.20
2783;DHT22;1399;47.072;15.452;2022-07-30T15:53:42;24.90;59.00
2783;DHT22;1399;47.072;15.452;2022-07-30T15:56:07;24.90;57.80
2783;DHT22;1399;47.072;15.452;2022-07-30T15:58:33;24.90;56.50
2783;DHT22;1399;47.072;15.452;2022-07-30T16:00:59;24.90;55.40
2783;DHT22;1399;47.072;15.452;2022-07-30T16:03:25;24.90;54.50
2783;DHT22;1399;47.072;15.452;2022-07-30T16:05:51;24.90;53.70
2783;DHT22;1399;47.072;15.452;2022-07-30T16:08:17;24.90;52.90
2783;DHT22;1399;47.072;15.452;2022-07-30T16:10:43;24.80;52.30
2783;DHT22;1399;47.072;15.452;2022-07-30T16:13:08;24.80;50.70
2783;DHT22;1399;47.072;15.452;2022-07-30T16:15:34;24.80;49.90
2783;DHT22;1399;47.072;15.452;2022-07-30T16:18:00;24.70;49.20
2783;DHT22;1399;47.072;15.452;2022-07-30T16:20:29;24.70;48.80
2783;DHT22;1399;47.072;15.452;2022-07-30T16:22:55;24.70;48.50
2783;DHT22;1399;47.072;15.452;2022-07-30T16:25:20;24.60;48.10
2783;DHT22;1399;47.072;15.452;2022-07-30T16:27:46;24.60;47.90
2783;DHT22;1399;47.072;15.452;2022-07-30T16:30:12;24.60;47.80
2783;DHT22;1399;47.072;15.452;2022-07-30T16:32:38;24.50;47.80
2783;DHT22;1399;47.072;15.452;2022-07-30T16:35:04;24.50;47.90
2783;DHT22;1399;47.072;15.452;2022-07-30T16:37:30;24.40;47.90
2783;DHT22;1399;47.072;15.452;2022-07-30T16:39:55;24.50;48.70
2783;DHT22;1399;47.072;15.452;2022-07-30T16:42:21;24.50;48.10
2783;DHT22;1399;47.072;15.452;2022-07-30T16:44:47;24.50;48.20
2783;DHT22;1399;47.072;15.452;2022-07-30T16:47:13;24.50;48.30
2783;DHT22;1399;47.072;15.452;2022-07-30T16:49:38;24.40;48.40
2783;DHT22;1399;47.072;15.452;2022-07-30T16:52:04;24.40;48.60
2783;DHT22;1399;47.072;15.452;2022-07-30T16:54:30;24.40;48.80
2783;DHT22;1399;47.072;15.452;2022-07-30T16:56:56;24.40;49.00
